Dunbar, NE (68346)

1:11 PM CDT on September 02, 2015 (GMT -0500)
Dunbar Water Tower | | Change Station
CLOSE
Current Station
Personal Weather Station
Location: Dunbar, NE
Elevation: 1155 ft
Nearby Weather Stations

Elev 1155 ft 40.67 °N, 96.04 °W | Updated 10 minutes ago

Partly Cloudy
Partly Cloudy
90.5 °F
Feels Like 101 °F
N
1.7
Wind Variable Wind from North

Today
High -- | Low -- °F
--% Chance of Precip.
Yesterday
High -- | Low -- °F
Precip. -- in
6:51 AM 7:55 PM
Waning Gibbous, 78% visible
Pressure 29.94 in
Visibility 10.0 miles
Clouds Clear
Heat Index 101 °F
Dew Point 75 °F
Humidity 60%
Rainfall 0.00 in
Snow Depth Not available.
UV 9 out of 12
Pollen 11.00 out of 12
Air Quality Not available.
Flu Activity Not available.
METAR KAFK 021755Z AUTO 18014G19KT 10SM CLR 29/19 A2994 RMK AO2 T02900186 10290 20220
Pressure 29.94 in
Visibility 10.0 miles
Clouds Clear
Heat Index 101 °F
Dew Point 75 °F
Humidity 60%
Rainfall 0.00 in
Snow Depth Not available.
UV 9 out of 12
Pollen 11.00 out of 12
Air Quality Not available.
Flu Activity Not available.
METAR KAFK 021755Z AUTO 18014G19KT 10SM CLR 29/19 A2994 RMK AO2 T02900186 10290 20220

10-Day Weather Forecast

×

Almanac

Astronomy

Sep. 02, 2015 Rise Set
Actual Time
Civil Twilight
Nautical Twilight
Astronomical Twilight
Moon
Length of Visible Light
Length of Day
Tomorrow will be .
, % of the Moon is Illuminated

Today's Extremes

State Highs State Lows

Community

WunderPhotos

Upload Photos

1,851,790 photos uploaded!

WunderBlogs® & News

Nearby

Air Quality

  Air Quality AQ Index Pollutant
Not available.

Snow Depth

Station Depth Elevation

Earthquake Activity

City Distance Mag. Time & Date
Minimum magnitude displayed is 2.5.

Coastal Water Temperatures

Place Temperature

Stations

Nearby Weather Stations

Station Location Temp. Windchill Dew Point Humidity Wind Precip. Elev Updated Type